Terminal Aerodrome Forecast
Issued by NWS

Home | Current Version | Previous Version | Text Only | Print | Product List | Glossary On
Versions: 1 2 3 4 5 6 7 8 9 10 11 12 13
000
FTUS43 KGRB 260525
TAFATW
TAF
KATW 260525Z 2606/2706 VRB03KT P6SM SCT200
     FM260900 VRB03KT 6SM BR SCT200
      TEMPO 2609/2612 3SM BR
     FM261300 22005KT P6SM SCT250=

USA.gov is the U.S. government's official web portal to all federal, state and local government web resources and services.